ADDS METAR Data INFO
IDs: Format: Raw Decoded Include TAF

Data at: 0404 UTC 11 Dec 2017

KLLJ 110355Z AUTO 23003KT 10SM CLR M11/M13 A3063 RMK AO2 SLP456 T11111133
KLLJ 110255Z AUTO 00000KT 10SM CLR M10/M13 A3062 RMK AO2 SLP452 T11001133 53003
KLLJ 110155Z AUTO 00000KT 10SM CLR M08/M12 A3061 RMK AO2 SLP446 T10781117
KLLJ 110055Z AUTO 00000KT 10SM CLR M08/M13 A3061 RMK AO2 SLP442 T10831128
KLLJ 102355Z AUTO 00000KT 10SM CLR M06/M11 A3061 RMK AO2 SLP439 T10611111 11022 21089 56008
KLLJ 102255Z AUTO 00000KT 10SM CLR M02/M11 A3062 RMK AO2 SLP433 T10221106
KLLJ 102155Z AUTO 00000KT 10SM CLR M03/M11 A3062 RMK AO2 SLP434 T10281111
KLLJ 102055Z AUTO 00000KT 10SM CLR M04/M11 A3064 RMK AO2 SLP440 T10441106 58020
KLLJ 101955Z AUTO 00000KT 10SM CLR M06/M11 A3066 RMK AO2 SLP455 T10611111
KLLJ 101855Z AUTO 00000KT 10SM CLR M08/M12 A3069 RMK AO2 SLP463 T10781117
KLLJ 101755Z AUTO 00000KT 10SM CLR M09/M12 A3071 RMK AO2 SLP470 I6000 T10891122 11089 21172 50001
KLLJ 101655Z AUTO 00000KT 10SM CLR M12/M14 A3072 RMK AO2 SLP484 T11171139
KLLJ 101555Z AUTO 00000KT 10SM CLR M14/M17 A3071 RMK AO2 SLP485 I1000 T11441167
KLLJ 101455Z AUTO 00000KT 10SM CLR M16/M18 A3070 RMK AO2 SLP482 I3000 T11561178 50002
KLLJ 101355Z AUTO 32004KT 10SM CLR M17/M19 A3071 RMK AO2 SLP486 T11671189
KLLJ 101255Z AUTO 17003KT 10SM CLR M16/M18 A3070 RMK AO2 SLP477 I1000 T11561178
KLLJ 101155Z AUTO 00000KT 10SM CLR M16/M18 A3070 RMK AO2 SLP471 I1000 I6000 T11561178 11117 21161 58002
KLLJ 101055Z AUTO 00000KT 10SM CLR M16/M18 A3070 RMK AO2 SLP466 T11561178
KLLJ 100955Z AUTO 00000KT 10SM CLR M16/M18 A3071 RMK AO2 SLP468 T11561178
KLLJ 100855Z AUTO 00000KT 10SM CLR M14/M16 A3070 RMK AO2 SLP463 T11391156 50006
KLLJ 100755Z AUTO 00000KT 10SM CLR M14/M16 A3070 RMK AO2 SLP468 T11391161
KLLJ 100655Z AUTO 19003KT 9SM CLR M13/M16 A3070 RMK AO2 SLP466 T11281156 410281172
KLLJ 100555Z AUTO 00000KT 10SM CLR M12/M14 A3068 RMK AO2 SLP463 T11171144 11067 21133 53006
KLLJ 100455Z AUTO 00000KT 10SM CLR M13/M14 A3067 RMK AO2 SLP470 T11281144
KLLJ 100355Z AUTO 00000KT 10SM CLR M11/M14 A3067 RMK AO2 SLP471 T11111139
KLLJ 100255Z AUTO 00000KT 10SM CLR M11/M13 A3066 RMK AO2 SLP469 T11061133 51011
KLLJ 100155Z AUTO 00000KT 10SM CLR M10/M13 A3065 RMK AO2 SLP465 T11001128
KLLJ 100055Z AUTO 00000KT 10SM CLR M09/M13 A3064 RMK AO2 SLP456 T10941128
KLLJ 092355Z AUTO 00000KT 10SM CLR M07/M12 A3062 RMK AO2 SLP448 T10721117 11028 21100 55001
KLLJ 092255Z AUTO 00000KT 10SM CLR M03/M10 A3062 RMK AO2 SLP433 T10331100
KLLJ 092155Z AUTO 00000KT 10SM CLR M04/M10 A3062 RMK AO2 SLP435 T10391100
KLLJ 092055Z AUTO 00000KT 10SM CLR M04/M11 A3063 RMK AO2 SLP437 T10391106 58022
KLLJ 091955Z AUTO 00000KT 10SM CLR M06/M11 A3066 RMK AO2 SLP449 T10611106
KLLJ 091855Z AUTO 06003KT 10SM CLR M08/M12 A3068 RMK AO2 SLP460 T10781117
KLLJ 091755Z AUTO 00000KT 10SM CLR M10/M13 A3070 RMK AO2 SLP474 I6000 T11001128 11100 21172 50004
KLLJ 091720Z AUTO 00000KT 10SM SCT001 M12/M14 A3071 RMK AO2 T11171139
KLLJ 091707Z AUTO 00000KT 3SM BR BKN001 M13/M14 A3071 RMK AO2 T11281144
KLLJ 091655Z AUTO 00000KT 1 1/4SM BR BKN001 M13/M15 A3071 RMK AO2 SLP480 T11281150
KLLJ 091651Z AUTO 00000KT 2 1/2SM HZ BKN001 M13/M16 A3071 RMK AO2
KLLJ 091646Z AUTO 05003KT 8SM SCT001 M13/M16 A3071 RMK AO2 T11281156
KLLJ 091638Z AUTO 00000KT 10SM BKN002 M13/M16 A3071 RMK AO2 T11281156
KLLJ 091630Z AUTO 00000KT 2SM BR BKN002 M14/M16 A3070 RMK AO2 T11391156
KLLJ 091615Z AUTO 00000KT 1/2SM FZFG VV002 M15/M17 A3070 RMK AO2 T11501167